createdAt,value
2023-03-11T00:00:18.062Z,100634.58
2023-03-11T00:03:46.287Z,100635.56
2023-03-11T00:06:54.584Z,100641.40
2023-03-11T00:09:47.999Z,100648.46
2023-03-11T00:12:29.589Z,100650.32
2023-03-11T00:15:39.599Z,100649.88
2023-03-11T00:18:36.722Z,100655.84
2023-03-11T00:21:44.940Z,100657.34
2023-03-11T00:24:15.618Z,100652.48
2023-03-11T00:27:13.914Z,100647.21
2023-03-11T00:30:04.215Z,100647.89
2023-03-11T00:33:12.584Z,100653.44
2023-03-11T00:36:10.894Z,100652.06
2023-03-11T00:39:09.391Z,100653.26
2023-03-11T00:42:17.563Z,100653.02
2023-03-11T00:44:57.027Z,100650.85
2023-03-11T00:47:25.095Z,100648.80
2023-03-11T00:49:52.953Z,100651.64
2023-03-11T00:52:29.992Z,100648.46
2023-03-11T00:54:59.002Z,100645.91
2023-03-11T00:57:29.151Z,100644.71
2023-03-11T00:59:56.891Z,100643.42
2023-03-11T01:02:58.055Z,100639.73
2023-03-11T01:06:06.432Z,100635.66
2023-03-11T01:09:14.650Z,100635.06
2023-03-11T01:12:23.049Z,100640.73
2023-03-11T01:15:17.128Z,100651.22
2023-03-11T01:18:08.483Z,100653.43
2023-03-11T01:21:16.764Z,100649.25
2023-03-11T01:24:18.010Z,100643.38
2023-03-11T01:27:19.304Z,100636.29
2023-03-11T01:30:16.102Z,100642.05
2023-03-11T01:33:24.373Z,100642.42
2023-03-11T01:36:32.644Z,100638.87
2023-03-11T01:39:40.846Z,100633.61
2023-03-11T01:42:49.043Z,100635.40
2023-03-11T01:45:57.498Z,100644.30
2023-03-11T01:49:05.821Z,100641.83
2023-03-11T01:52:14.102Z,100644.16
2023-03-11T01:55:22.309Z,100644.89
2023-03-11T01:58:22.160Z,100643.33
2023-03-11T02:01:10.227Z,100635.42
2023-03-11T02:03:39.594Z,100632.61
2023-03-11T02:06:13.808Z,100632.34
2023-03-11T02:08:42.569Z,100630.84
2023-03-11T02:11:34.012Z,100632.98
2023-03-11T02:14:04.898Z,100625.80
2023-03-11T02:17:13.069Z,100626.19
2023-03-11T02:20:21.524Z,100619.55
2023-03-11T02:23:29.685Z,100621.23
2023-03-11T02:26:20.010Z,100618.45
2023-03-11T02:29:28.279Z,100615.30
2023-03-11T02:32:30.680Z,100612.64
2023-03-11T02:35:31.532Z,100603.04
2023-03-11T02:38:39.940Z,100606.63
2023-03-11T02:41:48.254Z,100605.57
2023-03-11T02:44:56.564Z,100596.05
2023-03-11T02:47:55.108Z,100602.84
2023-03-11T02:50:44.976Z,100596.95
2023-03-11T02:53:53.109Z,100597.70
2023-03-11T02:56:52.612Z,100600.02
2023-03-11T02:59:40.270Z,100597.35
2023-03-11T03:02:41.269Z,100598.30
2023-03-11T03:05:49.524Z,100600.25
2023-03-11T03:08:50.334Z,100598.30
2023-03-11T03:11:58.682Z,100595.59
2023-03-11T03:14:59.986Z,100599.23
2023-03-11T03:18:08.232Z,100598.79
2023-03-11T03:21:06.682Z,100596.62
2023-03-11T03:23:55.298Z,100595.48
2023-03-11T03:27:03.905Z,100598.52
2023-03-11T03:30:04.988Z,100596.05
2023-03-11T03:33:13.215Z,100590.98
2023-03-11T03:36:21.574Z,100588.45
2023-03-11T03:39:30.748Z,100589.86
2023-03-11T03:42:39.233Z,100588.27
2023-03-11T03:45:19.393Z,100593.77
2023-03-11T03:48:13.127Z,100596.17
2023-03-11T03:51:21.420Z,100600.41
2023-03-11T03:54:28.498Z,100598.73
2023-03-11T03:57:36.633Z,100601.81
2023-03-11T04:00:34.796Z,100605.45
2023-03-11T04:03:43.119Z,100607.40
2023-03-11T04:06:57.294Z,100608.42
2023-03-11T04:09:58.687Z,100608.96
2023-03-11T04:13:05.971Z,100606.60
2023-03-11T04:16:14.286Z,100605.48
2023-03-11T04:18:49.396Z,100607.73
2023-03-11T04:21:37.369Z,100604.41
2023-03-11T04:24:14.582Z,100609.73
2023-03-11T04:27:22.708Z,100607.88
2023-03-11T04:30:31.155Z,100618.37
2023-03-11T04:33:31.856Z,100615.48
2023-03-11T04:36:40.016Z,100624.33
2023-03-11T04:39:48.223Z,100621.45
2023-03-11T04:42:56.628Z,100621.14
2023-03-11T04:45:47.591Z,100613.21
2023-03-11T04:48:55.853Z,100608.80
2023-03-11T04:52:04.352Z,100618.60
2023-03-11T04:55:12.915Z,100623.09
2023-03-11T04:58:21.290Z,100617.62
2023-03-11T05:01:28.067Z,100616.12
2023-03-11T05:04:36.528Z,100627.05
2023-03-11T05:07:42.382Z,100632.73
2023-03-11T05:10:34.000Z,100634.02
2023-03-11T05:13:32.380Z,100629.18
2023-03-11T05:16:09.384Z,100633.04
2023-03-11T05:19:17.733Z,100637.27
2023-03-11T05:22:25.957Z,100647.73
2023-03-11T05:25:34.361Z,100647.27
2023-03-11T05:28:31.189Z,100650.76
2023-03-11T05:31:29.916Z,100660.02
2023-03-11T05:34:09.760Z,100663.65
2023-03-11T05:37:18.138Z,100662.05
2023-03-11T05:40:21.529Z,100666.11
2023-03-11T05:43:28.837Z,100661.49
2023-03-11T05:46:37.470Z,100658.93
2023-03-11T05:49:45.794Z,100652.94
2023-03-11T05:52:41.874Z,100659.26
2023-03-11T05:55:50.137Z,100671.97
2023-03-11T05:58:58.311Z,100661.31
2023-03-11T06:02:06.834Z,100642.60
2023-03-11T06:05:15.529Z,100647.56
2023-03-11T06:08:24.007Z,100657.86
2023-03-11T06:11:32.207Z,100667.92
2023-03-11T06:14:32.909Z,100668.51
2023-03-11T06:17:41.302Z,100663.52
2023-03-11T06:20:49.913Z,100652.45
2023-03-11T06:23:58.386Z,100656.84
2023-03-11T06:27:06.948Z,100661.12
2023-03-11T06:30:15.414Z,100670.09
2023-03-11T06:33:26.403Z,100679.56
2023-03-11T06:36:37.510Z,100688.83
2023-03-11T06:39:38.540Z,100694.11
2023-03-11T06:42:47.123Z,100692.86
2023-03-11T06:45:55.403Z,100686.48
2023-03-11T06:49:04.044Z,100698.89
2023-03-11T06:52:12.222Z,100712.95
2023-03-11T06:55:20.520Z,100721.70
2023-03-11T06:58:08.710Z,100719.91
2023-03-11T07:01:17.475Z,100724.10
2023-03-11T07:04:22.062Z,100726.88
2023-03-11T07:07:30.312Z,100732.61
2023-03-11T07:10:37.435Z,100722.67
2023-03-11T07:13:35.265Z,100719.08
2023-03-11T07:16:43.595Z,100722.86
2023-03-11T07:19:51.988Z,100718.04
2023-03-11T07:22:51.177Z,100706.52
2023-03-11T07:25:58.494Z,100693.30
2023-03-11T07:28:57.734Z,100694.54
2023-03-11T07:32:06.178Z,100694.38
2023-03-11T07:35:14.338Z,100699.35
2023-03-11T07:38:05.504Z,100704.17
2023-03-11T07:41:14.209Z,100710.63
2023-03-11T07:44:22.957Z,100714.79
2023-03-11T07:47:31.203Z,100728.82
2023-03-11T07:50:22.242Z,100727.16
2023-03-11T07:53:30.404Z,100726.55
2023-03-11T07:56:33.034Z,100722.89
2023-03-11T07:59:31.331Z,100722.93
2023-03-11T08:02:38.482Z,100722.80
2023-03-11T08:05:46.885Z,100721.20
2023-03-11T08:08:55.123Z,100701.64
2023-03-11T08:12:03.336Z,100697.54
2023-03-11T08:15:13.012Z,100697.73
2023-03-11T08:18:21.170Z,100711.50
2023-03-11T08:21:29.421Z,100714.52
2023-03-11T08:24:37.545Z,100707.13
2023-03-11T08:27:45.921Z,100709.52
2023-03-11T08:30:37.376Z,100706.46
2023-03-11T08:33:45.709Z,100701.11
2023-03-11T08:36:45.138Z,100701.38
2023-03-11T08:39:53.704Z,100698.95
2023-03-11T08:43:01.900Z,100708.80
2023-03-11T08:46:11.430Z,100713.36
2023-03-11T08:49:13.683Z,100720.91
2023-03-11T08:52:22.134Z,100731.69
2023-03-11T08:55:30.276Z,100736.60
2023-03-11T08:58:31.531Z,100737.32
2023-03-11T09:01:28.698Z,100729.25
2023-03-11T09:04:19.770Z,100723.18
2023-03-11T09:07:20.738Z,100714.20
2023-03-11T09:10:19.238Z,100714.34
2023-03-11T09:12:55.995Z,100716.66
2023-03-11T09:15:55.579Z,100718.95
2023-03-11T09:19:03.859Z,100712.13
2023-03-11T09:22:12.226Z,100713.73
2023-03-11T09:25:00.500Z,100710.67
2023-03-11T09:27:51.667Z,100715.67
2023-03-11T09:30:39.877Z,100711.85
2023-03-11T09:33:47.527Z,100714.54
2023-03-11T09:36:56.019Z,100717.31
2023-03-11T09:39:57.450Z,100721.07
2023-03-11T09:43:14.526Z,100720.04
2023-03-11T09:46:10.954Z,100716.55
2023-03-11T09:49:20.382Z,100708.19
2023-03-11T09:52:27.752Z,100705.83
2023-03-11T09:55:36.206Z,100702.02
2023-03-11T09:58:47.306Z,100699.92
2023-03-11T10:01:55.519Z,100699.66
2023-03-11T10:05:12.927Z,100695.45
2023-03-11T10:07:47.607Z,100691.73
2023-03-11T10:10:25.540Z,100687.83
2023-03-11T10:13:27.871Z,100688.48
2023-03-11T10:16:28.263Z,100693.76
2023-03-11T10:19:05.736Z,100688.58
2023-03-11T10:22:05.094Z,100685.27
2023-03-11T10:25:11.791Z,100685.94
2023-03-11T10:27:49.459Z,100682.89
2023-03-11T10:30:27.814Z,100682.29
2023-03-11T10:33:00.163Z,100683.23
2023-03-11T10:35:36.988Z,100684.95
2023-03-11T10:38:33.266Z,100687.73
2023-03-11T10:41:41.443Z,100681.59
2023-03-11T10:45:06.109Z,100678.11
2023-03-11T10:48:16.345Z,100671.75
2023-03-11T10:51:28.478Z,100665.78
2023-03-11T10:54:38.713Z,100657.95
2023-03-11T10:57:47.987Z,100656.85
2023-03-11T11:00:58.268Z,100655.87
2023-03-11T11:04:06.575Z,100653.22
2023-03-11T11:07:12.874Z,100652.45
2023-03-11T11:10:16.042Z,100653.60
2023-03-11T11:13:36.539Z,100654.37
2023-03-11T11:16:44.860Z,100651.55
2023-03-11T11:19:46.036Z,100649.48
2023-03-11T11:22:54.288Z,100650.31
2023-03-11T11:26:08.331Z,100642.20
2023-03-11T11:29:16.618Z,100642.90
2023-03-11T11:32:25.984Z,100652.75
2023-03-11T11:35:34.692Z,100662.89
2023-03-11T11:38:34.525Z,100661.27
2023-03-11T11:41:44.790Z,100665.02
2023-03-11T11:44:20.909Z,100663.52
2023-03-11T11:47:42.295Z,100652.45
2023-03-11T11:50:50.614Z,100639.55
2023-03-11T11:54:02.336Z,100638.52
2023-03-11T11:57:09.313Z,100637.19
2023-03-11T12:00:17.768Z,100639.38
2023-03-11T12:03:26.133Z,100644.16
2023-03-11T12:06:40.548Z,100640.38
2023-03-11T12:09:53.707Z,100641.95
2023-03-11T12:12:46.665Z,100635.52
2023-03-11T12:16:01.131Z,100638.42
2023-03-11T12:19:18.754Z,100632.42
2023-03-11T12:22:22.054Z,100630.77
2023-03-11T12:24:53.009Z,100626.20
2023-03-11T12:27:57.607Z,100626.13
2023-03-11T12:31:08.929Z,100620.95
2023-03-11T12:34:23.429Z,100624.13
2023-03-11T12:37:35.114Z,100625.48
2023-03-11T12:40:43.292Z,100620.11
2023-03-11T12:44:03.815Z,100616.58
2023-03-11T12:47:10.932Z,100616.63
2023-03-11T12:50:00.527Z,100609.14
2023-03-11T12:53:08.800Z,100608.65
2023-03-11T12:56:17.289Z,100602.27
2023-03-11T12:59:28.521Z,100597.20
2023-03-11T13:02:46.117Z,100595.32
2023-03-11T13:06:12.461Z,100592.30
2023-03-11T13:09:26.732Z,100587.67
2023-03-11T13:12:34.944Z,100586.94
2023-03-11T13:15:43.152Z,100583.02
2023-03-11T13:18:54.256Z,100581.94
2023-03-11T13:22:08.177Z,100577.58
2023-03-11T13:25:16.601Z,100573.48
2023-03-11T13:28:24.870Z,100565.70
2023-03-11T13:31:34.645Z,100562.20
2023-03-11T13:34:45.767Z,100558.22
2023-03-11T13:37:54.161Z,100562.77
2023-03-11T13:41:05.117Z,100563.20
2023-03-11T13:44:13.338Z,100550.61
2023-03-11T13:47:22.900Z,100533.54
2023-03-11T13:50:30.983Z,100527.09
2023-03-11T13:53:39.574Z,100519.44
2023-03-11T13:56:47.968Z,100517.95
2023-03-11T13:59:56.410Z,100511.79
2023-03-11T14:02:59.363Z,100510.83
2023-03-11T14:06:07.667Z,100510.67
2023-03-11T14:09:02.791Z,100509.34
2023-03-11T14:11:51.075Z,100493.85
2023-03-11T14:14:40.417Z,100485.70
2023-03-11T14:17:28.676Z,100484.64
2023-03-11T14:20:07.164Z,100484.87
2023-03-11T14:22:38.457Z,100482.16
2023-03-11T14:25:39.905Z,100485.41
2023-03-11T14:28:48.321Z,100488.19
2023-03-11T14:32:02.516Z,100488.86
2023-03-11T14:35:10.836Z,100490.05
2023-03-11T14:38:19.206Z,100487.31
2023-03-11T14:41:27.658Z,100486.05
2023-03-11T14:44:20.104Z,100494.08
2023-03-11T14:46:56.943Z,100487.75
2023-03-11T14:50:04.322Z,100489.73
2023-03-11T14:53:12.663Z,100485.52
2023-03-11T14:56:27.135Z,100482.35
2023-03-11T14:59:15.346Z,100472.54
2023-03-11T15:01:49.985Z,100477.99
2023-03-11T15:05:00.639Z,100479.38
2023-03-11T15:07:52.064Z,100475.88
2023-03-11T15:10:46.486Z,100476.58
2023-03-11T15:13:55.073Z,100476.63
2023-03-11T15:17:03.306Z,100469.34
2023-03-11T15:19:52.901Z,100465.61
2023-03-11T15:23:10.261Z,100469.05
2023-03-11T15:26:09.021Z,100461.86
2023-03-11T15:29:17.320Z,100460.08
2023-03-11T15:32:18.300Z,100454.83
2023-03-11T15:35:15.728Z,100438.66
2023-03-11T15:38:06.332Z,100442.66
2023-03-11T15:41:05.222Z,100441.73
2023-03-11T15:44:03.051Z,100447.11
2023-03-11T15:47:11.461Z,100440.34
2023-03-11T15:50:04.464Z,100433.31
2023-03-11T15:53:06.189Z,100432.80
2023-03-11T15:56:15.520Z,100433.21
2023-03-11T15:59:24.965Z,100435.61
2023-03-11T16:02:23.449Z,100439.64
2023-03-11T16:05:30.359Z,100440.60
2023-03-11T16:08:32.037Z,100432.46
2023-03-11T16:11:41.714Z,100437.13
2023-03-11T16:14:50.688Z,100430.52
2023-03-11T16:17:39.551Z,100441.19
2023-03-11T16:20:41.493Z,100442.27
2023-03-11T16:23:58.627Z,100445.55
2023-03-11T16:27:07.053Z,100440.89
2023-03-11T16:30:06.431Z,100435.44
2023-03-11T16:33:14.811Z,100437.03
2023-03-11T16:36:07.417Z,100443.81
2023-03-11T16:39:17.907Z,100448.25
2023-03-11T16:42:17.315Z,100456.33
2023-03-11T16:45:25.303Z,100454.37
2023-03-11T16:48:16.622Z,100456.74
2023-03-11T16:51:24.897Z,100451.08
2023-03-11T16:54:15.899Z,100451.29
2023-03-11T16:57:24.183Z,100449.84
2023-03-11T17:00:32.440Z,100456.83
2023-03-11T17:03:42.691Z,100458.50
2023-03-11T17:06:45.523Z,100458.13
2023-03-11T17:09:16.078Z,100457.23
2023-03-11T17:11:49.934Z,100457.54
2023-03-11T17:14:17.904Z,100453.00
2023-03-11T17:17:07.419Z,100457.31
2023-03-11T17:19:35.511Z,100457.41
2023-03-11T17:22:03.688Z,100465.77
2023-03-11T17:24:31.820Z,100461.33
2023-03-11T17:27:35.396Z,100460.39
2023-03-11T17:30:43.752Z,100464.38
2023-03-11T17:33:51.647Z,100461.51
2023-03-11T17:36:22.737Z,100466.54
2023-03-11T17:39:30.986Z,100469.56
2023-03-11T17:42:27.727Z,100472.34
2023-03-11T17:45:36.018Z,100469.85
2023-03-11T17:48:17.627Z,100464.63
2023-03-11T17:50:48.827Z,100465.17
2023-03-11T17:53:36.177Z,100469.14
2023-03-11T17:56:44.692Z,100461.76
2023-03-11T17:59:53.360Z,100466.19
2023-03-11T18:03:01.666Z,100469.55
2023-03-11T18:06:09.118Z,100468.32
2023-03-11T18:09:17.387Z,100462.20
2023-03-11T18:12:14.415Z,100463.59
2023-03-11T18:15:18.822Z,100467.84
2023-03-11T18:18:10.630Z,100472.52
2023-03-11T18:21:18.972Z,100470.95
2023-03-11T18:24:17.532Z,100474.94
2023-03-11T18:26:51.113Z,100478.54
2023-03-11T18:29:24.569Z,100479.71
2023-03-11T18:31:52.752Z,100479.05
2023-03-11T18:34:26.235Z,100474.10
2023-03-11T18:36:54.151Z,100473.67
2023-03-11T18:40:02.446Z,100469.05
2023-03-11T18:43:10.728Z,100467.48
2023-03-11T18:46:19.029Z,100458.60
2023-03-11T18:49:27.439Z,100453.55
2023-03-11T18:52:35.731Z,100442.86
2023-03-11T18:55:44.186Z,100441.16
2023-03-11T18:58:52.403Z,100453.15
2023-03-11T19:02:00.899Z,100461.63
2023-03-11T19:05:09.199Z,100447.14
2023-03-11T19:08:17.766Z,100447.16
2023-03-11T19:10:48.534Z,100444.83
2023-03-11T19:13:46.902Z,100442.06
2023-03-11T19:16:55.847Z,100434.14
2023-03-11T19:19:44.142Z,100429.16
2023-03-11T19:22:20.330Z,100430.71
2023-03-11T19:25:27.783Z,100428.80
2023-03-11T19:28:36.522Z,100425.92
2023-03-11T19:31:45.272Z,100425.77
2023-03-11T19:34:53.527Z,100428.73
2023-03-11T19:38:01.936Z,100429.92
2023-03-11T19:41:11.727Z,100435.42
2023-03-11T19:44:09.328Z,100429.79
2023-03-11T19:47:17.830Z,100426.21
2023-03-11T19:50:26.465Z,100422.63
2023-03-11T19:53:23.808Z,100420.59
2023-03-11T19:56:32.201Z,100424.61
2023-03-11T19:59:40.472Z,100421.13
2023-03-11T20:02:51.691Z,100423.30
2023-03-11T20:05:52.741Z,100424.36
2023-03-11T20:09:01.447Z,100421.77
2023-03-11T20:12:09.741Z,100414.88
2023-03-11T20:15:18.159Z,100410.17
2023-03-11T20:17:51.787Z,100410.15
2023-03-11T20:21:00.543Z,100408.54
2023-03-11T20:24:08.811Z,100400.09
2023-03-11T20:27:17.410Z,100395.90
2023-03-11T20:30:25.686Z,100399.70
2023-03-11T20:33:34.328Z,100396.01
2023-03-11T20:36:21.038Z,100388.66
2023-03-11T20:39:29.698Z,100379.84
2023-03-11T20:42:38.456Z,100372.45
2023-03-11T20:45:47.380Z,100365.77
2023-03-11T20:48:55.721Z,100359.83
2023-03-11T20:51:51.454Z,100354.46
2023-03-11T20:54:59.719Z,100353.09
2023-03-11T20:57:58.207Z,100353.68
2023-03-11T21:01:02.652Z,100346.17
2023-03-11T21:04:11.417Z,100342.79
2023-03-11T21:07:19.806Z,100330.77
2023-03-11T21:10:28.109Z,100331.89
2023-03-11T21:13:35.688Z,100336.15
2023-03-11T21:16:44.838Z,100338.91
2023-03-11T21:19:53.558Z,100341.98
2023-03-11T21:22:47.594Z,100337.21
2023-03-11T21:25:55.944Z,100332.13
2023-03-11T21:29:04.329Z,100329.68
2023-03-11T21:32:05.969Z,100316.15
2023-03-11T21:35:14.973Z,100308.70
2023-03-11T21:38:23.582Z,100300.25
2023-03-11T21:42:00.001Z,100300.61
2023-03-11T21:45:08.663Z,100300.16
2023-03-11T21:48:10.199Z,100294.02
2023-03-11T21:51:11.675Z,100286.05
2023-03-11T21:54:20.141Z,100272.90
2023-03-11T21:57:28.510Z,100264.88
2023-03-11T22:00:37.436Z,100255.80
2023-03-11T22:03:46.279Z,100253.83
2023-03-11T22:06:57.007Z,100254.48
2023-03-11T22:09:56.056Z,100258.17
2023-03-11T22:13:04.666Z,100250.49
2023-03-11T22:16:13.116Z,100254.10
2023-03-11T22:19:21.959Z,100253.46
2023-03-11T22:22:11.730Z,100244.63
2023-03-11T22:25:20.145Z,100246.18
2023-03-11T22:28:28.608Z,100240.15
2023-03-11T22:31:37.400Z,100233.04
2023-03-11T22:34:45.834Z,100239.56
2023-03-11T22:37:54.263Z,100239.94
2023-03-11T22:41:02.629Z,100233.07
2023-03-11T22:44:11.042Z,100229.55
2023-03-11T22:47:19.463Z,100223.29
2023-03-11T22:50:28.165Z,100216.03
2023-03-11T22:53:36.711Z,100201.15
2023-03-11T22:56:48.668Z,100196.60
2023-03-11T22:59:58.575Z,100190.98
2023-03-11T23:03:07.093Z,100183.66
2023-03-11T23:06:15.518Z,100183.75
2023-03-11T23:08:55.114Z,100176.65
2023-03-11T23:11:32.063Z,100176.87
2023-03-11T23:14:05.855Z,100174.92
2023-03-11T23:16:34.111Z,100168.89
2023-03-11T23:19:04.797Z,100168.40
2023-03-11T23:21:33.279Z,100161.10
2023-03-11T23:24:10.471Z,100162.42
2023-03-11T23:26:58.915Z,100156.48
2023-03-11T23:29:50.170Z,100152.19
2023-03-11T23:32:58.539Z,100147.86
2023-03-11T23:35:46.975Z,100149.93
2023-03-11T23:38:55.456Z,100155.46
2023-03-11T23:41:46.540Z,100154.85
2023-03-11T23:44:28.958Z,100159.86
2023-03-11T23:47:30.133Z,100158.21
2023-03-11T23:50:38.879Z,100158.88
2023-03-11T23:53:17.297Z,100145.61
2023-03-11T23:55:50.611Z,100154.33
2023-03-11T23:58:59.208Z,100150.39
